Flight Track Log - Related Links

Times and Time Zones

All times are in EDT time to prevent confusion due to time zone crossing. See the RPA3228 flight status page for this flight to view local times or setup timezone preferences in your user account.


Time Position Orientation Groundspeed Altitude Reporting Facility
EDT Latitude Longitude Course Direction KTS MPH feet Rate Location/Type
Sat 10:52:48 AM 38.8833 -77.0667 330° Northwest 192 221 2,000  Level Potomac TRACON
Sat 10:53:54 AM 38.9500 -77.1333 322° Northwest 224 258 5,700 3,124 Climbing Potomac TRACON
Sat 10:54:00 AM 39.1235 -77.1436 337° Northwest  Level Estimated
Sat 10:54:49 AM 38.9833 -77.2000 303° West 252 290 8,300  Level Potomac TRACON
Sat 10:55:00 AM 39.2075 -77.1994 333° Northwest  Level FlightAware Approximate
Sat 10:56:00 AM 39.2981 -77.2345 339° North  Level Estimated
Sat 10:56:52 AM 39.0525 -77.3639 299° West 287 330 12,400  Level Washington Center
Sat 10:57:00 AM 39.3887 -77.2697 339° North  Level Estimated
Sat 10:57:53 AM 39.1111 -77.4775 304° West 310 357 15,600  Level Washington Center
Sat 10:58:00 AM 39.4545 -77.3180 330° Northwest  Level FlightAware Approximate
Sat 10:58:54 AM 39.1967 -77.4878 355° North 281 323 18,000  Level Washington Center
Sat 10:59:51 AM 39.2864 -77.4794 North 291 335 20,600 2,220 Climbing Washington Center
Sat 11:02:14 AM 39.4833 -77.4667 North 311 358 25,400 1,921 Climbing New York Center
Sat 11:03:14 AM 39.5692 -77.4614 North 311 358 27,100 1,300 Climbing New York Center
Sat 11:04:14 AM 39.6572 -77.4561 North 311 358 28,000 450 Climbing New York Center
Sat 11:05:14 AM 39.7464 -77.4619 357° North 311 358 28,000  Level New York Center
Sat 11:06:14 AM 39.8322 -77.4917 345° North 311 358 28,000  Level New York Center
Sat 11:07:14 AM 39.9181 -77.5244 344° North 311 358 28,000  Level New York Center
Sat 11:08:14 AM 40.0039 -77.5569 344° North 316 364 28,000  Level New York Center
Sat 11:09:14 AM 40.0919 -77.5847 346° North 316 364 28,000  Level New York Center
Sat 11:10:14 AM 40.1878 -77.6186 345° North 316 364 28,000  Level New York Center
Sat 11:12:42 AM 40.3875 -77.6914 344° North 324 373 28,000  Level Cleveland Center
Sat 11:13:44 AM 40.4731 -77.7242 344° North 323 372 28,000  Level Cleveland Center
Sat 11:14:45 AM 40.5769 -77.7614 345° North 324 373 28,000  Level Cleveland Center
Sat 11:15:47 AM 40.6631 -77.7917 345° North 323 372 28,000  Level Cleveland Center
Sat 11:16:49 AM 40.7500 -77.8242 344° North 326 375 28,000  Level Cleveland Center
Sat 11:17:51 AM 40.8367 -77.8553 345° North 326 375 28,000  Level Cleveland Center
Sat 11:18:52 AM 40.9250 -77.8875 345° North 330 380 28,000  Level Cleveland Center
Sat 11:19:54 AM 41.0269 -77.9253 344° North 322 371 28,000  Level Cleveland Center
Sat 11:20:56 AM 41.1139 -77.9578 344° North 326 375 28,000  Level Cleveland Center
Sat 11:21:57 AM 41.2008 -77.9894 345° North 327 376 28,000  Level Cleveland Center
Sat 11:22:59 AM 41.2872 -78.0208 345° North 325 374 28,000  Level Cleveland Center
Sat 11:24:00 AM 41.3739 -78.0528 345° North 326 375 28,000  Level Cleveland Center
Sat 11:25:02 AM 41.4778 -78.0914 344° North 326 375 28,000 -194 Level Cleveland Center
Sat 11:26:04 AM 41.5642 -78.1242 344° North 327 376 27,600 -878 Descending Cleveland Center
Sat 11:27:05 AM 41.6486 -78.1575 344° North 321 369 26,200 -1,366 Descending Cleveland Center
Sat 11:28:07 AM 41.7331 -78.1886 345° North 318 366 24,800 -1,659 Descending Cleveland Center
Sat 11:29:08 AM 41.8139 -78.2189 344° North 307 353 22,800 -2,098 Descending Cleveland Center
Sat 11:30:10 AM 41.8911 -78.2475 345° North 294 338 20,500 -1,902 Descending Cleveland Center
Sat 11:31:11 AM 41.9689 -78.2767 344° North 292 336 18,900 -1,623 Descending Cleveland Center
Sat 11:32:12 AM 42.0606 -78.3108 345° North 289 333 17,200 -1,561 Descending Cleveland Center
Sat 11:33:14 AM 42.1372 -78.3392 345° North 288 331 15,700 -1,415 Descending Cleveland Center
Sat 11:34:15 AM 42.2106 -78.3661 345° North 283 326 14,300 -1,415 Descending Cleveland Center
Sat 11:35:17 AM 42.2844 -78.3956 344° North 278 320 12,800 -1,463 Descending Cleveland Center
Sat 11:36:18 AM 42.3581 -78.4231 345° North 275 316 11,300 -1,268 Descending Cleveland Center
Sat 11:37:20 AM 42.4314 -78.4511 344° North 275 316 10,200 -1,561 Descending Cleveland Center
Sat 11:38:21 AM 42.5014 -78.4797 343° North 267 307 8,100 -2,098 Descending Cleveland Center
Sat 11:39:23 AM 42.5800 -78.5272 336° Northwest 270 311 5,900 -1,951 Descending Cleveland Center
Sat 11:40:24 AM 42.6406 -78.5847 325° Northwest 257 296 4,100 -927 Descending Cleveland Center
Sat 11:41:26 AM 42.6950 -78.6408 323° Northwest 254 292 4,000 -49 Descending Cleveland Center
Sat 11:42:27 AM 42.7556 -78.6986 325° Northwest 253 291 4,000  Level Cleveland Center
Sat 11:43:29 AM 42.8150 -78.7572 324° Northwest 255 293 4,000 -683 Level Cleveland Center
Sat 11:44:30 AM 42.8647 -78.8042 325° Northwest 209 241 2,600 -1,073 Descending Cleveland Center
Sat 11:45:32 AM 42.9006 -78.7872 19° North 188 216 1,800 -774 Descending Cleveland Center

Login

Don't have an account? Register now (free) for customized features, flight alerts, and more!